Flight Track Log - Related Links

Times and Time Zones

All times are in EDT time to prevent confusion due to time zone crossing. See the AWE1940 flight status page for this flight to view local times or setup timezone preferences in your user account.

Time Position Orientation Groundspeed Altitude Reporting Facility
EDT Latitude Longitude Course Direction KTS MPH feet Rate Location/Type
Tue 10:17:51 PM 35.1928 -80.9356 72° East 161 185 1,800  Level Atlanta Center
Tue 10:19:22 PM 35.1292 -80.8872 148° Southeast 267 307 4,900 2,460 Climbing Atlanta Center
Tue 10:20:00 PM 35.1172 -80.6219 29° Northeast  Level FlightAware Approximate
Tue 10:20:32 PM 35.1744 -80.7839 62° Northeast 309 356 8,400  Level Atlanta Center
Tue 10:21:00 PM 35.2154 -80.5557 30° Northeast  Level FlightAware Approximate
Tue 10:21:32 PM 35.2094 -80.6936 65° Northeast 310 357 11,300  Level Atlanta Center
Tue 10:22:00 PM 35.3122 -80.4865 30° Northeast  Level FlightAware Approximate
Tue 10:22:32 PM 35.2525 -80.5900 63° Northeast 321 369 13,700  Level Atlanta Center
Tue 10:23:00 PM 35.3569 -80.3773 72° East  Level FlightAware Approximate
Tue 10:23:32 PM 35.2914 -80.4917 64° Northeast 342 394 16,100  Level Atlanta Center
Tue 10:24:32 PM 35.3381 -80.3778 63° Northeast 357 411 18,400 2,224 Climbing Atlanta Center
Tue 10:26:22 PM 35.4308 -80.1472 64° Northeast 391 450 22,400 2,140 Climbing Washington Center
Tue 10:27:23 PM 35.4694 -80.0092 71° East 405 466 24,500 2,016 Climbing Washington Center
Tue 10:28:24 PM 35.5061 -79.8633 73° East 424 488 26,500 1,250 Climbing Washington Center
Tue 10:29:23 PM 35.5403 -79.7169 74° East 435 501 27,000 353 Climbing Washington Center
Tue 10:30:23 PM 35.5856 -79.5533 71° East 453 521 27,200 744 Climbing Washington Center
Tue 10:31:24 PM 35.6167 -79.4297 73° East 460 529 28,500 1,587 Climbing Washington Center
Tue 10:32:24 PM 35.6758 -79.2792 64° Northeast 454 522 30,400 1,881 Climbing Washington Center
Tue 10:33:22 PM 35.7342 -79.1411 62° Northeast 454 522 32,200 1,311 Climbing Washington Center
Tue 10:34:23 PM 35.7986 -79.0083 59° Northeast 449 517 33,000 397 Climbing Washington Center
Tue 10:35:23 PM 35.8628 -78.8725 60° Northeast 449 517 33,000  Level Washington Center
Tue 10:36:24 PM 35.9247 -78.7392 60° Northeast 449 517 33,000  Level Washington Center
Tue 10:37:23 PM 35.9889 -78.6031 60° Northeast 449 517 33,000  Level Washington Center
Tue 10:38:24 PM 36.0525 -78.4719 59° Northeast 449 517 33,000  Level Washington Center
Tue 10:39:24 PM 36.1119 -78.3378 61° Northeast 449 517 33,000  Level Washington Center
Tue 10:40:22 PM 36.1778 -78.2011 59° Northeast 449 517 33,000  Level Washington Center
Tue 10:41:22 PM 36.2389 -78.0694 60° Northeast 449 517 33,000  Level Washington Center
Tue 10:42:23 PM 36.2981 -77.9372 61° Northeast 449 517 33,000  Level Washington Center
Tue 10:43:23 PM 36.3611 -77.7997 60° Northeast 449 517 33,000  Level Washington Center
Tue 10:44:22 PM 36.4306 -77.6519 60° Northeast 449 517 33,000  Level Washington Center
Tue 10:45:23 PM 36.4825 -77.5269 63° Northeast 449 517 33,000  Level Washington Center
Tue 10:46:23 PM 36.5431 -77.3939 60° Northeast 449 517 33,000  Level Washington Center
Tue 10:47:24 PM 36.6056 -77.2583 60° Northeast 449 517 33,000  Level Washington Center
Tue 10:48:22 PM 36.6636 -77.1222 62° Northeast 449 517 33,000  Level Washington Center
Tue 10:49:23 PM 36.7300 -76.9967 57° Northeast 444 511 33,000  Level Washington Center
Tue 10:50:24 PM 36.8206 -76.9153 36° Northeast 414 476 33,000  Level Washington Center
Tue 10:51:24 PM 36.9258 -76.8233 35° Northeast 408 470 33,000  Level Washington Center
Tue 10:52:25 PM 37.0183 -76.7392 36° Northeast 408 470 33,000  Level Washington Center
Tue 10:53:22 PM 37.1111 -76.6519 37° Northeast 408 470 33,000  Level Washington Center
Tue 10:54:23 PM 37.2036 -76.5669 36° Northeast 408 470 33,000  Level Washington Center
Tue 10:55:24 PM 37.2961 -76.4822 36° Northeast 408 470 33,000  Level Washington Center
Tue 10:56:24 PM 37.3883 -76.3994 35° Northeast 408 470 33,000  Level Washington Center
Tue 10:57:23 PM 37.4828 -76.3142 36° Northeast 408 470 33,000  Level Washington Center
Tue 10:58:24 PM 37.5750 -76.2311 36° Northeast 408 470 33,000  Level Washington Center
Tue 10:59:24 PM 37.6672 -76.1481 35° Northeast 408 470 33,000  Level Washington Center
Tue 11:00:22 PM 37.7592 -76.0647 36° Northeast 408 470 33,000  Level Washington Center
Tue 11:01:23 PM 37.8450 -75.9967 32° Northeast 408 470 33,000  Level Washington Center
Tue 11:02:24 PM 37.9411 -75.9261 30° Northeast 402 463 33,000  Level Washington Center
Tue 11:03:22 PM 38.0394 -75.8581 29° Northeast 397 457 33,000  Level Washington Center
Tue 11:04:24 PM 38.1397 -75.7925 27° Northeast 397 457 33,000  Level Washington Center
Tue 11:05:22 PM 38.2356 -75.7239 29° Northeast 397 457 33,000  Level Washington Center
Tue 11:06:23 PM 38.3483 -75.6500 27° Northeast 397 457 33,000  Level Washington Center
Tue 11:07:22 PM 38.4464 -75.5836 28° Northeast 397 457 33,000  Level Washington Center
Tue 11:08:22 PM 38.5422 -75.5147 29° Northeast 397 457 33,000  Level Washington Center
Tue 11:09:24 PM 38.6381 -75.4456 29° Northeast 397 457 33,000  Level Washington Center
Tue 11:10:22 PM 38.7358 -75.3761 29° Northeast 397 457 33,000  Level Washington Center
Tue 11:11:23 PM 38.8336 -75.3064 29° Northeast 397 457 33,000  Level Washington Center
Tue 11:12:22 PM 38.9294 -75.2367 30° Northeast 397 457 33,000  Level Washington Center
Tue 11:13:22 PM 39.0250 -75.1694 29° Northeast 397 457 33,000  Level Washington Center
Tue 11:14:24 PM 39.1206 -75.1019 29° Northeast 397 457 33,000  Level Washington Center
Tue 11:15:22 PM 39.2161 -75.0292 31° Northeast 392 451 33,000  Level Washington Center
Tue 11:16:22 PM 39.3097 -74.9639 28° Northeast 392 451 33,000  Level Washington Center
Tue 11:17:21 PM 39.3969 -74.9014 29° Northeast 397 457 33,000  Level Washington Center
Tue 11:19:06 PM 39.5575 -74.7856 29° Northeast 396 456 33,000  Level New York Center
Tue 11:20:05 PM 39.6536 -74.7183 28° Northeast 391 450 33,000  Level New York Center
Tue 11:21:07 PM 39.7478 -74.6453 31° Northeast 391 450 33,000  Level New York Center
Tue 11:22:07 PM 39.8417 -74.5803 28° Northeast 391 450 33,000  Level New York Center
Tue 11:24:00 PM 40.0248 -74.4814 10° North  Level FlightAware Approximate
Tue 11:29:32 PM 40.5756 -74.3308 North 367 422 33,000  Level Boston Center
Tue 11:30:32 PM 40.6761 -74.3064 10° North 373 429 33,000  Level Boston Center
Tue 11:31:00 PM 40.7589 -74.3049 North  Level FlightAware Approximate
Tue 11:31:32 PM 40.7847 -74.2850 North 368 423 33,000  Level Boston Center
Tue 11:32:00 PM 40.8632 -74.2793 11° North  Level FlightAware Approximate
Tue 11:32:32 PM 40.8872 -74.2603 10° North 368 423 33,000  Level Boston Center
Tue 11:33:00 PM 40.9675 -74.2537 11° North  Level FlightAware Approximate
Tue 11:33:32 PM 40.9750 -74.2408 North 368 423 33,000  Level Boston Center
Tue 11:34:00 PM 41.0722 -74.2289 North  Level FlightAware Approximate
Tue 11:34:32 PM 41.0775 -74.2161 10° North 368 423 33,000  Level Boston Center
Tue 11:35:32 PM 41.1758 -74.1939 10° North 368 423 32,200 -900 Descending Boston Center
Tue 11:36:32 PM 41.2847 -74.1611 13° North 368 423 31,200 -2,050 Descending Boston Center
Tue 11:37:32 PM 41.3853 -74.1389 North 363 418 28,100 -2,600 Descending Boston Center
Tue 11:38:32 PM 41.4856 -74.1139 11° North 363 418 26,000 -1,250 Descending Boston Center
Tue 11:39:32 PM 41.5817 -74.0914 10° North 368 423 25,600 -2,100 Descending Boston Center
Tue 11:40:32 PM 41.6781 -74.0689 10° North 368 423 21,800 -3,900 Descending Boston Center
Tue 11:41:32 PM 41.7806 -74.0436 10° North 355 409 17,800 -3,692 Descending Boston Center
Tue 11:42:29 PM 41.8767 -74.0211 10° North 353 406 14,600 -3,419 Descending Boston Center
Tue 11:43:05 PM 41.9353 -74.0086 North 355 409 12,500 -3,238 Descending Boston Center
Tue 11:43:32 PM 41.9728 -73.9956 15° North 353 406 11,200 -1,475 Descending Boston Center
Tue 11:44:06 PM 42.0292 -73.9858 North 352 405 11,000 -200 Descending Boston Center
Tue 11:44:32 PM 42.0669 -73.9728 14° North 353 406 11,000  Level Boston Center
Tue 11:45:07 PM 42.1172 -73.9628 North 315 362 11,000  Level Boston Center
Tue 11:45:43 PM 42.1486 -73.9522 14° North 316 364 11,000 -700 Level Boston Center
Tue 11:46:07 PM 42.1944 -73.9422 North 271 312 10,300 -1,624 Descending Boston Center
Tue 11:47:08 PM 42.2719 -73.9244 10° North 279 321 8,700 -1,587 Descending Boston Center
Tue 11:48:08 PM 42.3450 -73.9036 12° North 268 308 7,100 -1,736 Descending Boston Center
Tue 11:49:09 PM 42.4164 -73.8800 14° North 264 304 5,200 -1,770 Descending Boston Center
Tue 11:50:10 PM 42.4936 -73.8536 14° North 264 304 3,500 -1,148 Descending Boston Center
Tue 11:51:04 PM 42.5522 -73.8353 13° North 256 295 3,000 -470 Descending Boston Center
Tue 11:52:05 PM 42.6089 -73.8194 12° North 188 216 2,600 -393 Descending Boston Center

Login

Don't have an account? Register now (free) for customized features, flight alerts, and more!